Time;durP1;ratioP1;P1;durP2;ratioP2;P2;SDS_P1;SDS_P2;PMS_P1;PMS_P2;Temp;Humidity;BMP_temperature;BMP_pressure;BME280_temperature;BME280_humidity;BME280_pressure;Samples;Min_cycle;Max_cycle;Signal;HPM_P1;HPM_P2
2023/01/02 00:00:50;;;;;;;7.30;2.80;;;;;;;11.39;93.26;100624.28;105410;1297;58988;-76
2023/01/02 00:03:17;;;;;;;7.70;3.10;;;;;;;11.40;93.21;100624.53;105579;1294;59186;-76
2023/01/02 00:05:44;;;;;;;9.30;3.10;;;;;;;11.40;93.20;100621.70;105611;1291;72995;-78
2023/01/02 00:08:10;;;;;;;10.00;3.30;;;;;;;11.40;93.15;100620.41;105373;1295;70086;-77
2023/01/02 00:10:37;;;;;;;8.30;2.90;;;;;;;11.39;93.31;100612.05;105478;1301;59167;-77
2023/01/02 00:13:03;;;;;;;7.70;2.90;;;;;;;11.38;93.33;100605.02;105389;1296;59380;-77
2023/01/02 00:15:30;;;;;;;9.70;3.80;;;;;;;11.37;93.54;100600.71;105500;1293;59020;-77
2023/01/02 00:17:56;;;;;;;7.10;2.90;;;;;;;11.38;93.41;100596.55;105504;1292;58854;-76
2023/01/02 00:20:23;;;;;;;10.80;3.40;;;;;;;11.40;93.37;100594.17;105386;1293;59380;-77
2023/01/02 00:22:49;;;;;;;7.50;2.70;;;;;;;11.42;93.15;100587.58;105396;1298;59106;-77
2023/01/02 00:25:15;;;;;;;6.00;3.10;;;;;;;11.45;93.19;100584.27;105482;1297;59175;-77
2023/01/02 00:27:42;;;;;;;7.40;2.90;;;;;;;11.48;92.94;100574.95;105645;1289;58798;-77
2023/01/02 00:30:09;;;;;;;8.50;2.90;;;;;;;11.51;92.65;100569.43;105657;1291;59006;-77
2023/01/02 00:32:36;;;;;;;7.70;3.10;;;;;;;11.54;92.53;100568.16;105503;1294;72164;-77
2023/01/02 00:35:02;;;;;;;8.60;2.50;;;;;;;11.57;92.32;100564.44;105561;1299;59349;-77
2023/01/02 00:37:29;;;;;;;7.40;3.00;;;;;;;11.59;92.30;100560.13;105492;1295;60657;-76
2023/01/02 00:39:55;;;;;;;8.40;3.00;;;;;;;11.62;92.07;100552.66;105438;1298;60069;-76
2023/01/02 00:42:22;;;;;;;8.00;2.70;;;;;;;11.65;91.69;100540.10;105374;1296;59275;-76
2023/01/02 00:44:48;;;;;;;6.50;2.40;;;;;;;11.69;91.61;100533.73;105374;1294;59085;-76
2023/01/02 00:47:15;;;;;;;9.60;2.90;;;;;;;11.71;91.47;100523.10;105496;1292;59372;-76
2023/01/02 00:49:41;;;;;;;8.90;2.60;;;;;;;11.72;91.13;100520.69;105474;1288;58390;-76
2023/01/02 00:52:08;;;;;;;9.10;2.90;;;;;;;11.72;91.18;100502.20;105632;1294;59216;-76
2023/01/02 00:54:34;;;;;;;10.30;2.90;;;;;;;11.74;90.80;100494.52;105614;1294;59516;-76
2023/01/02 00:57:01;;;;;;;8.00;3.10;;;;;;;11.76;90.87;100499.03;105449;1298;59681;-76
2023/01/02 00:59:27;;;;;;;6.90;3.00;;;;;;;11.79;90.65;100497.76;105590;1294;58841;-76
2023/01/02 01:01:53;;;;;;;8.80;2.80;;;;;;;11.82;90.58;100503.79;105604;1290;59061;-76
2023/01/02 01:04:20;;;;;;;7.10;3.00;;;;;;;11.83;90.32;100499.05;105539;1291;58928;-76
2023/01/02 01:06:46;;;;;;;9.40;2.60;;;;;;;11.83;90.04;100492.92;105519;1290;59564;-76
2023/01/02 01:09:13;;;;;;;8.30;2.80;;;;;;;11.83;90.03;100485.36;105595;1293;59676;-76
2023/01/02 01:11:39;;;;;;;4.60;2.30;;;;;;;11.85;89.78;100482.18;105483;1295;59391;-76
2023/01/02 01:14:06;;;;;;;8.90;2.60;;;;;;;11.86;89.35;100488.95;105418;1295;59422;-76
2023/01/02 01:16:32;;;;;;;8.70;2.50;;;;;;;11.89;89.32;100485.61;105618;1295;58987;-76
2023/01/02 01:18:59;;;;;;;8.80;2.60;;;;;;;11.92;89.04;100479.02;105520;1295;59925;-76
2023/01/02 01:21:25;;;;;;;6.30;2.40;;;;;;;11.95;88.82;100478.16;105411;1298;59240;-76
2023/01/02 01:23:54;;;;;;;7.20;2.80;;;;;;;11.97;88.38;100482.70;105522;1293;59049;-76
2023/01/02 01:26:21;;;;;;;8.60;2.90;;;;;;;11.98;88.24;100481.98;105610;1294;60779;-76
2023/01/02 01:28:51;;;;;;;7.20;2.50;;;;;;;11.98;88.10;100477.11;105536;1295;58995;-76
2023/01/02 01:31:17;;;;;;;6.20;2.30;;;;;;;11.97;87.96;100474.17;105521;1292;73761;-76
2023/01/02 01:33:44;;;;;;;7.40;2.40;;;;;;;11.95;87.67;100467.30;105484;1294;69848;-76
2023/01/02 01:36:13;;;;;;;7.40;2.50;;;;;;;11.93;87.55;100460.34;105382;1296;72874;-76
2023/01/02 01:38:41;;;;;;;8.10;2.30;;;;;;;11.91;87.35;100462.83;105334;1287;61433;-76
2023/01/02 01:41:09;;;;;;;7.20;2.20;;;;;;;11.91;87.38;100466.98;105516;1295;60117;-76
2023/01/02 01:43:50;;;;;;;7.50;2.40;;;;;;;11.91;87.07;100467.32;105645;1294;75121;-76
2023/01/02 01:46:37;;;;;;;8.40;2.50;;;;;;;11.94;86.76;100471.04;105423;1295;70320;-76
2023/01/02 01:49:27;;;;;;;6.80;2.20;;;;;;;11.96;86.55;100469.13;105440;1293;72580;-76
2023/01/02 01:52:08;;;;;;;7.50;2.40;;;;;;;11.99;85.97;100472.84;105447;1294;61769;-76
2023/01/02 01:54:39;;;;;;;6.90;2.00;;;;;;;12.01;85.74;100470.86;105572;1294;60876;-76
2023/01/02 01:57:28;;;;;;;7.20;2.30;;;;;;;12.00;85.36;100465.27;105441;1294;74763;-76
2023/01/02 01:59:57;;;;;;;6.10;2.30;;;;;;;11.99;85.28;100465.14;105519;1294;70846;-77
2023/01/02 02:02:26;;;;;;;6.80;2.10;;;;;;;11.98;84.90;100464.00;105490;1291;71731;-76
2023/01/02 02:04:56;;;;;;;8.10;2.50;;;;;;;11.99;84.72;100467.52;105444;1293;60954;-76
2023/01/02 02:07:22;;;;;;;9.40;2.70;;;;;;;12.02;84.50;100465.83;105475;1290;59636;-76
2023/01/02 02:09:58;;;;;;;8.50;2.90;;;;;;;12.03;84.01;100467.70;105442;1289;74537;-76
2023/01/02 02:12:26;;;;;;;6.90;2.20;;;;;;;12.08;83.28;100459.76;105596;1289;69832;-76
2023/01/02 02:14:53;;;;;;;7.30;2.60;;;;;;;12.13;82.82;100457.71;105353;1289;74399;-76
2023/01/02 02:17:51;;;;;;;6.90;2.40;;;;;;;12.18;81.87;100456.52;105493;1293;59312;-76
2023/01/02 02:20:27;;;;;;;11.60;2.70;;;;;;;12.27;81.12;100452.96;105506;1290;59228;-76
2023/01/02 02:23:03;;;;;;;7.00;2.30;;;;;;;12.35;80.42;100454.18;105593;1288;73757;-76
2023/01/02 02:25:35;;;;;;;6.90;2.20;;;;;;;12.46;79.60;100453.77;105408;1297;72052;-76
2023/01/02 02:28:57;;;;;;;7.20;2.20;;;;;;;12.56;78.85;100450.70;105580;1293;72438;-76
2023/01/02 02:31:33;;;;;;;6.20;2.20;;;;;;;12.68;78.21;100446.23;105050;1299;62103;-75
2023/01/02 02:34:38;;;;;;;7.10;2.30;;;;;;;12.75;77.71;100438.70;105471;1294;60841;-76
2023/01/02 02:37:30;;;;;;;7.10;2.70;;;;;;;12.85;77.21;100436.02;105115;1288;73963;-76
2023/01/02 02:40:08;;;;;;;10.40;2.60;;;;;;;12.93;76.41;100422.95;105469;1293;70679;-75
2023/01/02 02:42:44;;;;;;;7.50;2.50;;;;;;;12.99;76.42;100424.58;105279;1298;72075;-76
2023/01/02 02:45:39;;;;;;;7.60;2.30;;;;;;;13.05;75.86;100425.52;105613;1293;60587;-76
2023/01/02 02:48:12;;;;;;;6.60;2.30;;;;;;;13.12;75.73;100420.63;105498;1296;59204;-76
2023/01/02 02:50:59;;;;;;;9.10;2.60;;;;;;;13.17;75.28;100418.60;105579;1292;73560;-76
2023/01/02 02:53:41;;;;;;;6.90;2.10;;;;;;;13.23;75.20;100405.27;105312;1296;72126;-76
2023/01/02 02:56:11;;;;;;;8.30;2.20;;;;;;;13.25;74.57;100396.46;105499;1290;74239;-76
2023/01/02 02:58:39;;;;;;;6.80;2.10;;;;;;;13.29;74.46;100399.35;105474;1298;61985;-76
2023/01/02 03:01:12;;;;;;;6.70;2.30;;;;;;;13.30;74.17;100394.90;105620;1287;59225;-76
2023/01/02 03:03:38;;;;;;;8.40;2.20;;;;;;;13.33;73.82;100392.98;105594;1294;74421;-76
2023/01/02 03:06:17;;;;;;;8.70;2.40;;;;;;;13.35;73.22;100394.66;105460;1293;58965;-76
2023/01/02 03:08:57;;;;;;;6.70;2.60;;;;;;;13.38;73.22;100393.34;105502;1294;71275;-76
2023/01/02 03:11:35;;;;;;;7.50;2.60;;;;;;;13.43;73.37;100386.45;105489;1293;60432;-76
2023/01/02 03:14:06;;;;;;;8.90;2.50;;;;;;;13.47;73.15;100394.34;105292;1294;58997;-76
2023/01/02 03:16:40;;;;;;;7.30;2.40;;;;;;;13.48;72.87;100395.78;105389;1294;73621;-76
2023/01/02 03:19:12;;;;;;;5.10;1.90;;;;;;;13.51;72.42;100396.08;105505;1295;69473;-76
2023/01/02 03:21:48;;;;;;;5.80;2.10;;;;;;;13.55;72.28;100397.60;105492;1288;70525;-76
2023/01/02 03:24:18;;;;;;;6.30;2.20;;;;;;;13.60;72.03;100394.41;105340;1295;61870;-76
2023/01/02 03:26:51;;;;;;;6.10;2.10;;;;;;;13.65;72.02;100396.43;105458;1288;60185;-76
2023/01/02 03:29:43;;;;;;;5.90;2.20;;;;;;;13.65;71.61;100402.38;105387;1293;73364;-76
2023/01/02 03:32:15;;;;;;;6.30;2.50;;;;;;;13.71;71.24;100407.39;105389;1296;70863;-76
2023/01/02 03:34:47;;;;;;;6.80;2.10;;;;;;;13.77;71.20;100406.16;105442;1293;72694;-76
2023/01/02 03:37:22;;;;;;;8.10;2.00;;;;;;;13.81;70.62;100400.52;105413;1287;62018;-76
2023/01/02 03:39:53;;;;;;;6.40;2.30;;;;;;;13.88;70.71;100407.20;105623;1290;59737;-76
2023/01/02 03:42:26;;;;;;;8.90;2.30;;;;;;;13.93;70.73;100402.65;105351;1295;74486;-76
2023/01/02 03:45:02;;;;;;;6.60;2.00;;;;;;;13.96;70.38;100407.59;105467;1295;69917;-76
2023/01/02 03:47:35;;;;;;;5.50;2.10;;;;;;;14.00;70.35;100412.63;105509;1288;72916;-76
2023/01/02 03:50:10;;;;;;;6.60;2.20;;;;;;;14.01;70.78;100403.93;105557;1293;61445;-76
2023/01/02 03:52:36;;;;;;;8.10;2.30;;;;;;;14.00;71.13;100406.72;105536;1293;59301;-76
2023/01/02 03:55:04;;;;;;;8.90;2.40;;;;;;;13.98;71.48;100406.27;105398;1290;59672;-76
2023/01/02 03:57:41;;;;;;;9.00;2.40;;;;;;;13.93;71.84;100406.58;105458;1297;69592;-76
2023/01/02 04:00:12;;;;;;;7.40;2.30;;;;;;;13.86;72.72;100412.41;105631;1287;70126;-76
2023/01/02 04:02:55;;;;;;;7.30;2.40;;;;;;;13.79;74.08;100416.41;105643;1294;61983;-75
2023/01/02 04:05:31;;;;;;;6.80;2.20;;;;;;;13.65;75.11;100411.14;105499;1295;59127;-73
2023/01/02 04:08:02;;;;;;;9.40;2.50;;;;;;;13.53;75.23;100411.86;105613;1290;74418;-76
2023/01/02 04:10:29;;;;;;;8.30;2.20;;;;;;;13.45;75.11;100409.79;105393;1297;69831;-74
2023/01/02 04:13:02;;;;;;;9.10;2.50;;;;;;;13.42;74.91;100407.56;105449;1294;72430;-74
2023/01/02 04:15:34;;;;;;;6.40;2.30;;;;;;;13.39;74.69;100405.84;105312;1296;60543;-74
2023/01/02 04:18:06;;;;;;;7.70;2.20;;;;;;;13.38;74.52;100403.46;105613;1292;59117;-74
2023/01/02 04:20:39;;;;;;;7.90;2.30;;;;;;;13.38;74.24;100406.08;105348;1296;74402;-74
2023/01/02 04:23:13;;;;;;;8.20;2.50;;;;;;;13.40;74.02;100401.29;105467;1292;70909;-74
2023/01/02 04:25:46;;;;;;;5.20;2.10;;;;;;;13.41;73.67;100397.52;105612;1294;72507;-74
2023/01/02 04:28:28;;;;;;;6.70;2.30;;;;;;;13.42;73.75;100394.91;105478;1288;60489;-75
2023/01/02 04:31:02;;;;;;;7.10;2.20;;;;;;;13.43;73.09;100391.46;105378;1298;58538;-74
2023/01/02 04:33:32;;;;;;;9.20;2.00;;;;;;;13.46;72.87;100395.86;105350;1295;74256;-75
2023/01/02 04:36:07;;;;;;;7.00;2.50;;;;;;;13.48;72.57;100394.71;105383;1296;69923;-74
2023/01/02 04:38:33;;;;;;;10.60;2.30;;;;;;;13.50;72.58;100399.77;105335;1297;71560;-74
2023/01/02 04:41:00;;;;;;;9.10;2.50;;;;;;;13.51;72.51;100405.70;105479;1295;59328;-74
2023/01/02 04:43:26;;;;;;;5.30;2.30;;;;;;;13.51;72.56;100403.95;105602;1294;58957;-74
2023/01/02 04:45:53;;;;;;;6.50;2.30;;;;;;;13.51;72.32;100412.63;105354;1297;59667;-75
2023/01/02 04:48:20;;;;;;;9.70;2.70;;;;;;;13.51;72.33;100416.68;105411;1290;59026;-75
2023/01/02 04:50:47;;;;;;;8.50;2.30;;;;;;;13.53;72.09;100424.00;105475;1288;59483;-75
2023/01/02 04:53:14;;;;;;;9.60;2.40;;;;;;;13.55;71.90;100418.52;105584;1291;62031;-75
2023/01/02 04:55:41;;;;;;;7.10;2.10;;;;;;;13.60;71.71;100410.39;105481;1295;59005;-75
2023/01/02 04:58:07;;;;;;;4.80;2.10;;;;;;;13.64;71.42;100413.10;105313;1294;73474;-75
2023/01/02 05:00:34;;;;;;;6.30;2.20;;;;;;;13.69;71.19;100414.89;105461;1288;58953;-75
2023/01/02 05:03:02;;;;;;;5.70;2.10;;;;;;;13.73;70.88;100409.77;105491;1296;59533;-75
2023/01/02 05:05:29;;;;;;;7.40;2.20;;;;;;;13.76;70.77;100411.59;105494;1295;62390;-75
2023/01/02 05:07:56;;;;;;;6.30;2.10;;;;;;;13.80;71.01;100400.42;105521;1294;58337;-75
2023/01/02 05:10:23;;;;;;;7.50;2.10;;;;;;;13.82;71.00;100405.84;105471;1294;73246;-75
2023/01/02 05:12:49;;;;;;;6.60;2.10;;;;;;;13.84;71.07;100400.60;105606;1287;59270;-75
2023/01/02 05:15:16;;;;;;;5.70;2.40;;;;;;;13.86;70.83;100398.70;105567;1287;58822;-75
2023/01/02 05:17:42;;;;;;;6.50;2.30;;;;;;;13.91;70.67;100404.95;105514;1293;58989;-75
2023/01/02 05:20:13;;;;;;;7.70;2.40;;;;;;;13.94;70.67;100412.17;105341;1298;59130;-75
2023/01/02 05:25:26;;;;;;;7.40;2.50;;;;;;;13.96;71.21;100421.45;105416;1289;69973;-75
2023/01/02 05:27:54;;;;;;;6.80;1.90;;;;;;;13.94;72.65;100425.17;105497;1295;70813;-75
2023/01/02 05:30:20;;;;;;;7.60;2.20;;;;;;;13.85;72.92;100419.63;105380;1295;62289;-75
2023/01/02 05:32:47;;;;;;;8.40;2.30;;;;;;;13.76;73.34;100422.41;105450;1293;59090;-75
2023/01/02 05:35:14;;;;;;;9.30;2.20;;;;;;;13.68;73.50;100418.45;105393;1294;73277;-75
2023/01/02 05:37:40;;;;;;;5.30;2.30;;;;;;;13.62;73.34;100418.04;105619;1295;69945;-75
2023/01/02 05:40:08;;;;;;;5.60;2.40;;;;;;;13.61;72.95;100412.33;105383;1296;72901;-75
2023/01/02 05:42:34;;;;;;;8.20;2.00;;;;;;;13.61;72.69;100403.05;105399;1297;62923;-75
2023/01/02 05:45:01;;;;;;;7.40;2.40;;;;;;;13.62;72.56;100408.65;105620;1289;59347;-75
2023/01/02 05:47:27;;;;;;;6.90;2.40;;;;;;;13.64;72.28;100413.61;105505;1287;59257;-75
2023/01/02 05:49:54;;;;;;;10.10;2.50;;;;;;;13.67;71.96;100411.11;105598;1292;59258;-75
2023/01/02 05:52:20;;;;;;;11.00;3.50;;;;;;;13.70;71.89;100409.48;105506;1296;59050;-75
2023/01/02 05:54:46;;;;;;;7.60;2.10;;;;;;;13.72;71.72;100411.02;105466;1297;59264;-75
2023/01/02 05:57:14;;;;;;;6.40;2.30;;;;;;;13.76;71.26;100411.50;105466;1295;59707;-75
2023/01/02 05:59:40;;;;;;;5.60;1.90;;;;;;;13.81;70.90;100420.73;105374;1297;73524;-75
2023/01/02 06:02:07;;;;;;;7.80;2.10;;;;;;;13.85;70.63;100426.08;105367;1290;59164;-75
2023/01/02 06:04:33;;;;;;;7.60;2.30;;;;;;;13.90;70.41;100419.92;105483;1290;72521;-74
2023/01/02 06:07:00;;;;;;;5.80;1.80;;;;;;;13.95;70.48;100423.42;105389;1297;58866;-74
2023/01/02 06:09:26;;;;;;;6.50;2.20;;;;;;;13.97;70.73;100418.98;105626;1294;58999;-74
2023/01/02 06:11:52;;;;;;;7.80;2.40;;;;;;;13.97;70.60;100411.16;105484;1288;59321;-74
2023/01/02 06:14:21;;;;;;;6.80;2.00;;;;;;;13.98;70.68;100406.84;105504;1297;59121;-74
2023/01/02 06:16:47;;;;;;;10.10;2.20;;;;;;;13.96;70.67;100413.98;105503;1287;72112;-74
2023/01/02 06:19:14;;;;;;;6.80;1.90;;;;;;;13.96;70.69;100408.73;105593;1292;60668;-74
2023/01/02 06:21:40;;;;;;;7.20;2.20;;;;;;;13.92;70.35;100407.38;105349;1297;59394;-74
2023/01/02 06:24:06;;;;;;;9.00;2.60;;;;;;;13.92;70.44;100413.97;105604;1291;58984;-74
2023/01/02 06:26:33;;;;;;;8.90;2.80;;;;;;;13.90;70.39;100412.13;105497;1295;59235;-74
2023/01/02 06:29:01;;;;;;;6.50;2.00;;;;;;;13.88;70.49;100418.06;105472;1295;74379;-75
2023/01/02 06:31:28;;;;;;;10.10;2.40;;;;;;;13.85;70.57;100415.53;105395;1290;61655;-74
2023/01/02 06:34:00;;;;;;;7.20;2.20;;;;;;;13.86;70.57;100411.02;105495;1285;60444;-74
2023/01/02 06:36:31;;;;;;;8.00;2.10;;;;;;;13.85;70.55;100420.24;105422;1298;74499;-74
2023/01/02 06:38:58;;;;;;;6.80;2.00;;;;;;;13.87;70.53;100414.42;105064;1298;241918;-74
2023/01/02 06:41:25;;;;;;;7.00;1.90;;;;;;;13.91;70.46;100408.84;105394;1289;72679;-74
2023/01/02 06:43:52;;;;;;;7.20;1.80;;;;;;;13.93;69.98;100408.68;105365;1295;61020;-74
2023/01/02 06:46:21;;;;;;;6.70;2.10;;;;;;;13.98;69.92;100413.16;105392;1295;58950;-74
2023/01/02 06:48:48;;;;;;;8.90;2.20;;;;;;;14.02;69.79;100411.36;105406;1294;72438;-74
2023/01/02 06:51:17;;;;;;;6.60;1.80;;;;;;;14.07;69.76;100413.59;105385;1298;69813;-75
2023/01/02 06:53:44;;;;;;;7.30;1.80;;;;;;;14.08;69.84;100416.50;105482;1295;71096;-74
2023/01/02 06:56:12;;;;;;;5.70;2.20;;;;;;;14.10;69.69;100416.25;105493;1287;60507;-75
2023/01/02 06:58:39;;;;;;;5.10;2.20;;;;;;;14.10;69.48;100424.70;105606;1295;60191;-76
2023/01/02 07:01:11;;;;;;;6.50;1.90;;;;;;;14.15;69.49;100415.80;105349;1291;76109;-75
2023/01/02 07:03:38;;;;;;;8.30;2.10;;;;;;;14.19;69.45;100422.64;105483;1294;71239;-74
2023/01/02 07:06:11;;;;;;;7.60;1.90;;;;;;;14.21;69.44;100427.52;105355;1287;71952;-75
2023/01/02 07:08:38;;;;;;;6.70;1.80;;;;;;;14.22;69.73;100427.04;105373;1296;60773;-75
2023/01/02 07:11:10;;;;;;;6.00;1.90;;;;;;;14.22;69.77;100435.41;105431;1297;60707;-75
2023/01/02 07:13:37;;;;;;;4.10;1.70;;;;;;;14.25;69.78;100439.97;105309;1294;73206;-75
2023/01/02 07:16:05;;;;;;;4.30;1.70;;;;;;;14.25;69.80;100437.84;105447;1288;70872;-75
2023/01/02 07:18:32;;;;;;;5.80;1.70;;;;;;;14.27;69.76;100442.77;105389;1295;73317;-76
2023/01/02 07:20:59;;;;;;;6.90;2.00;;;;;;;14.25;69.86;100439.23;105466;1291;61064;-75
2023/01/02 07:23:26;;;;;;;6.70;2.00;;;;;;;14.25;70.00;100433.52;105381;1289;59173;-75
2023/01/02 07:26:02;;;;;;;6.00;1.70;;;;;;;14.25;70.00;100436.56;105316;1294;73071;-76
2023/01/02 07:28:29;;;;;;;6.30;1.80;;;;;;;14.23;69.87;100439.36;105324;1295;70224;-75
2023/01/02 07:31:00;;;;;;;4.90;1.70;;;;;;;14.25;70.09;100436.48;105603;1286;72681;-72
2023/01/02 07:33:31;;;;;;;5.50;1.70;;;;;;;14.23;70.10;100445.06;105480;1290;61883;-72
2023/01/02 07:36:07;;;;;;;6.20;1.70;;;;;;;14.21;70.21;100453.64;105396;1295;59620;-72
2023/01/02 07:38:34;;;;;;;8.10;1.90;;;;;;;14.22;70.20;100453.85;105524;1294;73742;-72
2023/01/02 07:41:00;;;;;;;6.50;1.80;;;;;;;14.22;70.36;100449.57;105480;1287;69587;-72
2023/01/02 07:43:27;;;;;;;4.20;1.70;;;;;;;14.19;70.37;100451.38;105334;1295;59574;-72
2023/01/02 07:45:53;;;;;;;6.10;1.90;;;;;;;14.15;70.58;100451.04;105544;1287;58879;-72
2023/01/02 07:48:20;;;;;;;7.30;2.00;;;;;;;14.14;70.58;100456.42;105512;1294;59101;-72
2023/01/02 07:50:46;;;;;;;4.80;1.70;;;;;;;14.13;70.69;100460.29;105507;1294;58968;-72
2023/01/02 07:53:13;;;;;;;5.20;1.90;;;;;;;14.12;70.69;100454.77;105507;1281;60791;-72
2023/01/02 07:55:39;;;;;;;6.00;1.50;;;;;;;14.13;70.51;100452.68;105521;1290;59306;-72
2023/01/02 07:58:06;;;;;;;7.40;1.80;;;;;;;14.13;70.54;100443.21;105511;1294;59613;-72
2023/01/02 08:00:32;;;;;;;5.60;2.00;;;;;;;14.13;70.26;100450.73;105526;1297;60037;-72
2023/01/02 08:02:59;;;;;;;6.40;1.90;;;;;;;14.17;70.21;100457.61;105623;1293;59074;-73
2023/01/02 08:05:26;;;;;;;6.10;1.80;;;;;;;14.17;70.34;100457.36;105599;1284;71041;-72
2023/01/02 08:07:52;;;;;;;5.00;1.80;;;;;;;14.17;70.40;100462.89;105491;1290;72272;-73
2023/01/02 08:10:19;;;;;;;6.00;2.00;;;;;;;14.16;70.19;100458.19;105599;1291;60459;-72
2023/01/02 08:12:45;;;;;;;6.40;1.80;;;;;;;14.18;70.16;100453.55;105435;1289;59360;-72
2023/01/02 08:15:12;;;;;;;6.30;1.70;;;;;;;14.19;70.40;100450.02;105518;1290;59114;-72
2023/01/02 08:17:40;;;;;;;7.40;1.90;;;;;;;14.16;70.27;100456.54;105417;1296;59201;-72
2023/01/02 08:20:07;;;;;;;5.60;1.70;;;;;;;14.16;70.51;100451.86;105581;1287;71858;-72
2023/01/02 08:22:34;;;;;;;8.10;2.00;;;;;;;14.13;70.28;100454.20;105507;1290;61245;-72
2023/01/02 08:25:00;;;;;;;6.40;1.70;;;;;;;14.13;70.33;100453.39;105634;1290;60154;-72
2023/01/02 08:27:27;;;;;;;6.40;1.80;;;;;;;14.12;70.37;100453.63;105620;1287;73204;-72
2023/01/02 08:29:53;;;;;;;4.40;1.60;;;;;;;14.09;70.28;100458.98;105423;1287;59991;-72
2023/01/02 08:32:20;;;;;;;5.20;1.60;;;;;;;14.10;70.34;100450.55;105393;1293;59090;-73
2023/01/02 08:34:46;;;;;;;6.80;1.90;;;;;;;14.10;70.39;100452.98;105480;1290;59722;-72
2023/01/02 08:37:13;;;;;;;6.30;2.10;;;;;;;14.09;70.58;100451.70;105458;1295;59151;-72
2023/01/02 08:39:40;;;;;;;6.50;1.70;;;;;;;14.09;70.50;100449.95;105438;1291;73912;-72
2023/01/02 08:42:07;;;;;;;9.80;1.90;;;;;;;14.09;70.35;100462.98;105584;1292;59318;-72
2023/01/02 08:44:36;;;;;;;4.50;1.40;;;;;;;14.12;70.15;100465.37;105635;1287;71848;-72
2023/01/02 08:47:04;;;;;;;7.00;1.90;;;;;;;14.15;70.03;100466.42;105411;1289;61736;-72
2023/01/02 08:49:30;;;;;;;4.80;1.60;;;;;;;14.15;70.13;100467.21;105489;1294;60233;-73
2023/01/02 08:51:57;;;;;;;5.60;1.60;;;;;;;14.16;70.03;100476.41;105622;1294;73103;-72
2023/01/02 08:54:23;;;;;;;4.40;1.70;;;;;;;14.16;69.89;100470.65;105530;1289;59330;-73
2023/01/02 08:56:50;;;;;;;7.70;1.90;;;;;;;14.17;69.99;100477.84;105372;1291;71734;-73
2023/01/02 08:59:16;;;;;;;5.30;1.70;;;;;;;14.21;70.05;100468.08;105601;1287;59002;-73
2023/01/02 09:01:43;;;;;;;5.70;1.70;;;;;;;14.21;69.76;100478.80;105524;1295;58719;-73
2023/01/02 09:04:10;;;;;;;6.60;1.80;;;;;;;14.25;69.63;100474.48;105327;1300;75468;-73
2023/01/02 09:06:40;;;;;;;8.50;1.80;;;;;;;14.29;69.57;100478.23;105510;1296;71672;-72
2023/01/02 09:09:07;;;;;;;5.70;1.70;;;;;;;14.33;69.37;100481.38;105426;1290;72934;-73
2023/01/02 09:11:42;;;;;;;6.40;1.60;;;;;;;14.37;69.23;100475.23;105367;1297;61796;-73
2023/01/02 09:14:08;;;;;;;5.60;1.40;;;;;;;14.42;69.11;100474.71;105424;1295;60248;-73
2023/01/02 09:16:34;;;;;;;7.70;2.00;;;;;;;14.46;69.04;100478.84;105585;1294;74785;-73
2023/01/02 09:19:02;;;;;;;4.70;1.70;;;;;;;14.49;69.03;100487.02;105664;1277;59255;-73
2023/01/02 09:21:29;;;;;;;6.70;1.60;;;;;;;14.50;68.97;100485.74;105401;1297;72805;-73
2023/01/02 09:23:55;;;;;;;5.20;1.40;;;;;;;14.51;68.82;100486.36;105402;1293;62708;-73
2023/01/02 09:26:22;;;;;;;6.10;1.40;;;;;;;14.57;68.55;100486.33;105524;1294;61203;-73
2023/01/02 09:28:48;;;;;;;5.60;1.40;;;;;;;14.59;68.61;100486.30;105492;1290;59008;-73
2023/01/02 09:31:16;;;;;;;6.30;1.90;;;;;;;14.60;68.72;100485.33;105528;1287;58617;-72
2023/01/02 09:33:44;;;;;;;6.70;1.60;;;;;;;14.60;68.22;100491.35;105455;1296;70567;-73
2023/01/02 09:36:13;;;;;;;8.00;1.70;;;;;;;14.62;68.18;100497.84;105393;1285;63032;-72
2023/01/02 09:38:40;;;;;;;5.50;1.90;;;;;;;14.62;68.32;100493.24;105514;1294;58885;-73
2023/01/02 09:41:29;;;;;;;7.40;1.60;;;;;;;14.60;68.48;100510.25;105407;1296;59371;-73
2023/01/02 09:44:10;;;;;;;5.80;1.50;;;;;;;14.55;68.47;100518.90;105610;1287;70854;-73
2023/01/02 09:46:42;;;;;;;4.60;1.50;;;;;;;14.54;68.36;100517.41;105418;1290;72763;-73
2023/01/02 09:49:13;;;;;;;6.10;1.30;;;;;;;14.57;68.29;100522.69;105613;1292;60124;-73
2023/01/02 09:51:41;;;;;;;5.60;1.30;;;;;;;14.58;68.14;100523.96;105513;1293;59876;-73
2023/01/02 09:54:21;;;;;;;4.40;1.70;;;;;;;14.59;67.91;100524.00;105593;1292;73098;-73
2023/01/02 09:56:56;;;;;;;5.40;1.50;;;;;;;14.63;67.57;100526.05;105399;1297;69845;-73
2023/01/02 10:00:08;;;;;;;6.10;1.70;;;;;;;14.70;67.67;100524.61;105393;1294;70807;-73
2023/01/02 10:03:00;;;;;;;4.60;1.60;;;;;;;14.75;67.66;100527.70;105592;1294;61387;-72
2023/01/02 10:05:39;;;;;;;5.50;1.50;;;;;;;14.79;67.05;100522.52;105521;1293;60442;-72
2023/01/02 10:08:29;;;;;;;5.00;1.80;;;;;;;14.81;66.84;100521.08;105631;1290;74599;-72
2023/01/02 10:11:29;;;;;;;6.10;1.40;;;;;;;14.82;66.67;100516.71;105494;1288;71325;-73
2023/01/02 10:13:59;;;;;;;6.50;1.40;;;;;;;14.82;66.62;100538.75;105448;1295;71736;-72
2023/01/02 10:16:56;;;;;;;4.20;1.20;;;;;;;14.81;66.86;100541.30;105512;1298;60892;-72
2023/01/02 10:19:34;;;;;;;3.70;1.40;;;;;;;14.75;66.69;100548.16;105510;1290;58974;-72
2023/01/02 10:22:02;;;;;;;5.80;1.40;;;;;;;14.72;66.88;100556.00;105411;1294;74359;-72
2023/01/02 10:24:53;;;;;;;4.00;1.50;;;;;;;14.69;67.05;100551.23;105522;1294;71054;-72
2023/01/02 10:27:26;;;;;;;6.30;1.50;;;;;;;14.64;66.79;100568.98;105596;1293;71237;-72
2023/01/02 10:30:05;;;;;;;7.70;1.70;;;;;;;14.59;67.05;100566.10;105455;1290;60439;-72
2023/01/02 10:32:33;;;;;;;4.30;1.30;;;;;;;14.55;67.77;100567.73;105322;1292;59426;-72
2023/01/02 10:35:06;;;;;;;4.80;1.20;;;;;;;14.50;68.23;100569.10;105462;1290;73786;-72
2023/01/02 10:37:34;;;;;;;5.40;1.40;;;;;;;14.41;68.84;100575.58;105578;1292;69886;-72
2023/01/02 10:40:01;;;;;;;5.50;1.50;;;;;;;14.32;69.83;100584.42;105603;1294;72806;-72
2023/01/02 10:42:30;;;;;;;5.50;1.50;;;;;;;14.15;71.62;100599.04;105345;1293;61893;-71
2023/01/02 10:44:56;;;;;;;5.30;1.50;;;;;;;14.00;74.23;100592.10;105465;1294;59130;-72
2023/01/02 10:47:28;;;;;;;3.90;1.60;;;;;;;13.72;77.80;100592.40;105369;1294;59776;-72
2023/01/02 10:49:55;;;;;;;6.30;1.80;;;;;;;13.38;81.04;100599.25;105479;1293;70300;-72
2023/01/02 10:53:02;;;;;;;4.80;1.60;;;;;;;12.99;83.41;100607.77;105450;1293;71735;-71
2023/01/02 10:55:37;;;;;;;5.70;1.60;;;;;;;12.71;85.30;100591.48;105520;1287;62077;-72
2023/01/02 10:58:06;;;;;;;4.70;1.50;;;;;;;12.55;86.35;100585.94;105501;1287;59397;-72
2023/01/02 11:00:35;;;;;;;6.80;1.80;;;;;;;12.45;86.81;100590.82;105276;1295;73225;-72
2023/01/02 11:03:11;;;;;;;6.40;1.70;;;;;;;12.40;86.77;100599.09;105510;1297;70158;-72
2023/01/02 11:05:44;;;;;;;6.10;1.60;;;;;;;12.43;86.05;100593.52;105591;1294;70785;-72
2023/01/02 11:08:14;;;;;;;5.80;1.60;;;;;;;12.52;85.26;100597.02;105354;1289;62286;-72
2023/01/02 11:10:41;;;;;;;6.50;1.70;;;;;;;12.61;85.11;100595.04;105387;1288;60374;-72
2023/01/02 11:13:14;;;;;;;6.40;1.80;;;;;;;12.71;83.82;100592.34;105434;1294;75260;-72
2023/01/02 11:16:01;;;;;;;7.70;1.60;;;;;;;12.81;81.99;100593.23;105612;1294;71141;-72
2023/01/02 11:18:34;;;;;;;5.70;1.80;;;;;;;12.89;81.22;100598.15;105382;1295;71475;-73
2023/01/02 11:21:04;;;;;;;6.10;1.50;;;;;;;12.92;80.32;100604.80;105624;1291;61279;-72
2023/01/02 11:23:39;;;;;;;5.60;1.30;;;;;;;12.96;80.14;100612.71;105504;1293;60324;-71
2023/01/02 11:26:33;;;;;;;5.10;1.60;;;;;;;12.97;79.96;100614.44;105573;1287;74875;-73
2023/01/02 11:29:15;;;;;;;4.10;1.40;;;;;;;12.99;79.14;100619.81;105584;1294;69680;-72
2023/01/02 11:31:50;;;;;;;6.90;1.50;;;;;;;13.04;78.96;100636.84;105622;1294;71164;-72
2023/01/02 11:34:31;;;;;;;5.80;1.40;;;;;;;13.10;78.03;100624.20;105502;1287;60466;-73
2023/01/02 11:37:14;;;;;;;5.00;1.40;;;;;;;13.13;78.09;100632.33;105500;1295;61007;-73